Cedar, Iowa
Current Conditions -  °F | °C
As of 5:35 AM on Thursday 27 Nov 2014 (Local Time) from KOOA Reporting Station
Overcast Overcast  
Wind Chill:   Ceiling: 2600
Heat Index: 16°   Visibility: 10mi
Dew Point: 13°   Wind: 17mph
Humidity: 86%   Direction: 320°NW
Pressure: 30.44"   Gusts: 22mph
Location:  41.21°N, 92.53°W
Report Text: KOOA 271135Z AUTO 32015G19KT 10SM OVC026 M09/M11 A3044 RMK AO2 T10871107
Loading
Personal Weather Stations






























Interactive Weather Map New forecast layout! Learn more

10-Day Weather Forecast

Advertisements
Track Severe Weather on mobile